LZPP METAR and TAF | Updated Today

LZPP METAR

Piešťany Airport

Observation time: 19 min. ago

LZPP 061900Z 35006KT CAVOK M05/M08 Q1038

Need help? Read our tutorial on how to read METARs or read the parsed version below.

Piešťany Airport (LZPP) METAR

  • Weather conditions on Mon, 06 Feb 2023 19:00:00 +0000 (19 min. ago):
  • Present conditions: Dry
  • Clouds: Clear skies
  • Visibility: Greater than 10 km
  • Wind: 350 degrees at 6 knots
  • Temperature: -5 celsius
  • Dew point: -8 celsius
  • Pressure: 1038 millibars
  • Remarks: None


Useful to know...

LZPP TAF

Piešťany Airport

TAF LZPP 061715Z 0618/0703 02006KT CAVOK
Observation time: 2:04 hr. ago
Need help? Read our tutorial on how to read TAFs or read the parsed version below.

Parsed version of TAF for Piešťany Airport (LZPP)

  • From 06 February at 18:00 UTC, to day 07 of the month at 03:00 UTC
  • Visibility: Greater than 10 km
  • Wind: 20 degrees at 6